createdAt,value
2022-10-19T00:02:03.371Z,101318.09
2022-10-19T00:04:29.852Z,101320.81
2022-10-19T00:06:56.248Z,101321.75
2022-10-19T00:09:22.879Z,101316.03
2022-10-19T00:11:50.506Z,101323.69
2022-10-19T00:14:20.231Z,101322.38
2022-10-19T00:16:49.374Z,101321.56
2022-10-19T00:19:21.998Z,101319.81
2022-10-19T00:21:48.554Z,101325.03
2022-10-19T00:24:15.238Z,101314.50
2022-10-19T00:26:41.798Z,101311.50
2022-10-19T00:29:08.635Z,101305.50
2022-10-19T00:31:35.046Z,101316.13
2022-10-19T00:34:01.512Z,101315.88
2022-10-19T00:36:34.045Z,101308.75
2022-10-19T00:39:01.720Z,101304.53
2022-10-19T00:41:31.477Z,101310.19
2022-10-19T00:44:29.763Z,101306.84
2022-10-19T00:47:03.250Z,101308.56
2022-10-19T00:49:33.636Z,101303.16
2022-10-19T00:52:06.283Z,101300.63
2022-10-19T00:54:33.703Z,101309.47
2022-10-19T00:57:00.417Z,101309.59
2022-10-19T00:59:31.719Z,101309.97
2022-10-19T01:01:58.961Z,101303.75
2022-10-19T01:04:27.171Z,101296.78
2022-10-19T01:06:54.649Z,101292.56
2022-10-19T01:09:21.260Z,101294.94
2022-10-19T01:11:59.351Z,101290.13
2022-10-19T01:14:47.282Z,101288.34
2022-10-19T01:17:28.570Z,101282.88
2022-10-19T01:20:25.332Z,101290.34
2022-10-19T01:22:54.582Z,101287.06
2022-10-19T01:25:28.285Z,101289.75
2022-10-19T01:28:06.846Z,101272.50
2022-10-19T01:30:43.869Z,101279.38
2022-10-19T01:33:39.659Z,101276.25
2022-10-19T01:36:12.719Z,101271.78
2022-10-19T01:38:45.175Z,101279.53
2022-10-19T01:41:25.753Z,101274.06
2022-10-19T01:44:07.819Z,101268.72
2022-10-19T01:46:39.189Z,101263.34
2022-10-19T01:49:15.871Z,101265.63
2022-10-19T01:51:49.352Z,101261.75
2022-10-19T01:54:17.908Z,101258.63
2022-10-19T01:56:47.173Z,101263.47
2022-10-19T01:59:16.203Z,101261.00
2022-10-19T02:01:46.263Z,101249.72
2022-10-19T02:04:16.170Z,101259.25
2022-10-19T02:06:43.246Z,101251.22
2022-10-19T02:09:09.880Z,101265.59
2022-10-19T02:11:37.603Z,101252.28
2022-10-19T02:14:13.285Z,101264.66
2022-10-19T02:16:57.693Z,101263.06
2022-10-19T02:21:56.741Z,101268.94
2022-10-19T02:24:23.133Z,101261.97
2022-10-19T02:26:50.162Z,101263.00
2022-10-19T02:29:16.940Z,101262.84
2022-10-19T02:31:44.179Z,101257.59
2022-10-19T02:34:11.255Z,101255.63
2022-10-19T02:36:37.732Z,101254.75
2022-10-19T02:39:04.900Z,101260.22
2022-10-19T02:41:36.812Z,101260.00
2022-10-19T02:44:18.245Z,101254.47
2022-10-19T02:46:49.785Z,101255.53
2022-10-19T02:49:16.684Z,101254.72
2022-10-19T02:52:02.213Z,101249.41
2022-10-19T02:54:29.466Z,101250.09
2022-10-19T02:56:56.610Z,101246.19
2022-10-19T02:59:23.384Z,101239.31
2022-10-19T03:01:50.282Z,101236.63
2022-10-19T03:04:17.011Z,101238.13
2022-10-19T03:06:43.872Z,101240.91
2022-10-19T03:09:10.618Z,101233.53
2022-10-19T03:11:36.984Z,101236.47
2022-10-19T03:14:03.357Z,101234.28
2022-10-19T03:16:29.704Z,101228.38
2022-10-19T03:18:56.077Z,101235.50
2022-10-19T03:21:22.468Z,101224.88
2022-10-19T03:23:48.848Z,101218.69
2022-10-19T03:26:16.939Z,101218.75
2022-10-19T03:28:43.513Z,101218.75
2022-10-19T03:31:10.035Z,101217.81
2022-10-19T03:33:36.437Z,101216.00
2022-10-19T03:36:25.092Z,101218.84
2022-10-19T03:38:53.471Z,101209.72
2022-10-19T03:41:21.850Z,101217.06
2022-10-19T03:43:48.440Z,101212.56
2022-10-19T03:46:15.537Z,101213.38
2022-10-19T03:48:42.611Z,101217.13
2022-10-19T03:51:11.551Z,101208.16
2022-10-19T03:53:39.040Z,101208.16
2022-10-19T03:56:17.094Z,101212.66
2022-10-19T03:58:44.991Z,101216.47
2022-10-19T04:01:17.567Z,101222.13
2022-10-19T04:03:44.580Z,101219.78
2022-10-19T04:06:21.222Z,101229.25
2022-10-19T04:08:49.395Z,101237.28
2022-10-19T04:11:17.982Z,101245.72
2022-10-19T04:13:44.332Z,101249.16
2022-10-19T04:16:13.838Z,101244.75
2022-10-19T04:18:40.318Z,101249.97
2022-10-19T04:21:06.815Z,101244.38
2022-10-19T04:23:35.313Z,101235.63
2022-10-19T04:26:07.395Z,101239.63
2022-10-19T04:28:34.926Z,101250.38
2022-10-19T04:31:06.298Z,101247.28
2022-10-19T04:33:33.644Z,101238.50
2022-10-19T04:36:02.135Z,101239.56
2022-10-19T04:38:29.754Z,101228.91
2022-10-19T04:41:02.117Z,101224.97
2022-10-19T04:43:29.039Z,101230.69
2022-10-19T04:45:55.533Z,101222.19
2022-10-19T04:48:21.953Z,101228.09
2022-10-19T04:50:48.404Z,101194.66
2022-10-19T04:53:14.785Z,101213.47
2022-10-19T04:55:42.281Z,101210.63
2022-10-19T04:58:09.268Z,101218.50
2022-10-19T05:00:38.723Z,101211.34
2022-10-19T05:03:05.267Z,101211.94
2022-10-19T05:05:32.621Z,101207.50
2022-10-19T05:07:59.110Z,101195.31
2022-10-19T05:10:25.562Z,101200.41
2022-10-19T05:12:52.096Z,101207.41
2022-10-19T05:15:18.776Z,101202.25
2022-10-19T05:17:45.205Z,101202.50
2022-10-19T05:20:11.896Z,101217.56
2022-10-19T05:22:39.156Z,101214.91
2022-10-19T05:25:07.056Z,101206.97
2022-10-19T05:27:34.252Z,101207.91
2022-10-19T05:30:00.795Z,101203.13
2022-10-19T05:32:28.159Z,101200.63
2022-10-19T05:34:54.582Z,101209.41
2022-10-19T05:37:21.642Z,101203.53
2022-10-19T05:39:48.042Z,101212.03
2022-10-19T05:42:14.425Z,101219.44
2022-10-19T05:44:40.919Z,101221.06
2022-10-19T05:47:07.487Z,101215.66
2022-10-19T05:49:33.978Z,101203.19
2022-10-19T05:52:00.475Z,101210.41
2022-10-19T05:54:28.496Z,101193.63
2022-10-19T05:56:55.270Z,101211.44
2022-10-19T05:59:23.048Z,101219.59
2022-10-19T06:01:49.558Z,101207.34
2022-10-19T06:06:43.708Z,101215.53
2022-10-19T06:09:10.790Z,101211.34
2022-10-19T06:11:39.551Z,101210.78
2022-10-19T06:14:10.928Z,101200.75
2022-10-19T06:16:37.749Z,101208.22
2022-10-19T06:19:05.532Z,101206.66
2022-10-19T06:21:33.455Z,101203.88
2022-10-19T06:24:05.065Z,101208.59
2022-10-19T06:26:32.901Z,101204.88
2022-10-19T06:29:01.035Z,101205.50
2022-10-19T06:31:28.944Z,101204.47
2022-10-19T06:33:56.035Z,101204.34
2022-10-19T06:36:25.387Z,101213.56
2022-10-19T06:38:53.086Z,101215.31
2022-10-19T06:41:20.059Z,101221.53
2022-10-19T06:43:50.855Z,101229.97
2022-10-19T06:46:20.486Z,101231.94
2022-10-19T06:48:58.585Z,101232.44
2022-10-19T06:51:27.467Z,101238.50
2022-10-19T06:53:57.126Z,101235.44
2022-10-19T06:56:25.060Z,101230.28
2022-10-19T06:58:51.559Z,101223.34
2022-10-19T07:01:18.112Z,101240.94
2022-10-19T07:03:44.499Z,101239.66
2022-10-19T07:06:12.665Z,101236.09
2022-10-19T07:08:40.566Z,101243.31
2022-10-19T07:11:11.151Z,101235.75
2022-10-19T07:13:38.198Z,101241.41
2022-10-19T07:16:07.477Z,101242.53
2022-10-19T07:18:35.350Z,101238.41
2022-10-19T07:21:04.155Z,101243.91
2022-10-19T07:23:32.516Z,101249.16
2022-10-19T07:26:01.774Z,101251.50
2022-10-19T07:28:29.763Z,101250.84
2022-10-19T07:30:56.764Z,101252.38
2022-10-19T07:33:23.430Z,101252.16
2022-10-19T07:35:49.947Z,101254.88
2022-10-19T07:38:16.345Z,101256.13
2022-10-19T07:40:46.356Z,101255.25
2022-10-19T07:43:14.009Z,101252.72
2022-10-19T07:45:40.497Z,101258.09
2022-10-19T07:48:07.024Z,101253.34
2022-10-19T07:50:33.565Z,101231.88
2022-10-19T07:53:00.033Z,101257.00
2022-10-19T07:55:26.519Z,101257.84
2022-10-19T07:57:52.990Z,101252.94
2022-10-19T08:00:19.624Z,101253.69
2022-10-19T08:02:59.742Z,101235.81
2022-10-19T08:05:33.835Z,101247.72
2022-10-19T08:08:00.226Z,101235.06
2022-10-19T08:10:26.771Z,101251.91
2022-10-19T08:12:53.293Z,101235.94
2022-10-19T08:15:19.844Z,101250.84
2022-10-19T08:17:46.350Z,101235.19
2022-10-19T08:20:12.809Z,101225.63
2022-10-19T08:22:39.679Z,101244.22
2022-10-19T08:25:06.305Z,101224.63
2022-10-19T08:27:32.723Z,101232.81
2022-10-19T08:29:59.200Z,101246.09
2022-10-19T08:32:25.549Z,101235.44
2022-10-19T08:34:52.013Z,101236.47
2022-10-19T08:37:26.321Z,101244.88
2022-10-19T08:40:05.649Z,101242.75
2022-10-19T08:42:50.823Z,101237.44
2022-10-19T08:45:19.928Z,101243.88
2022-10-19T08:48:03.825Z,101225.09
2022-10-19T08:50:40.956Z,101214.72
2022-10-19T08:53:12.998Z,101226.41
2022-10-19T08:56:26.980Z,101225.53
2022-10-19T08:59:17.166Z,101228.28
2022-10-19T09:02:02.256Z,101227.91
2022-10-19T09:04:36.649Z,101205.81
2022-10-19T09:07:28.273Z,101226.31
2022-10-19T09:10:05.477Z,101228.31
2022-10-19T09:12:42.143Z,101228.03
2022-10-19T09:15:25.387Z,101230.28
2022-10-19T09:17:51.730Z,101223.34
2022-10-19T09:20:20.038Z,101217.75
2022-10-19T09:23:02.058Z,101212.41
2022-10-19T09:25:30.707Z,101205.31
2022-10-19T09:28:25.658Z,101205.59
2022-10-19T09:30:58.277Z,101206.16
2022-10-19T09:33:32.635Z,101204.84
2022-10-19T09:36:02.750Z,101205.47
2022-10-19T09:38:29.928Z,101207.41
2022-10-19T09:41:14.321Z,101212.94
2022-10-19T09:43:50.709Z,101211.72
2022-10-19T09:49:16.458Z,101199.50
2022-10-19T09:51:52.639Z,101201.94
2022-10-19T09:54:59.970Z,101191.53
2022-10-19T09:57:26.429Z,101190.78
2022-10-19T09:59:55.636Z,101186.16
2022-10-19T10:02:30.459Z,101193.25
2022-10-19T10:05:07.763Z,101187.63
2022-10-19T10:07:37.526Z,101191.47
2022-10-19T10:10:35.455Z,101194.47
2022-10-19T10:13:02.231Z,101194.34
2022-10-19T10:15:43.916Z,101205.13
2022-10-19T10:18:15.638Z,101196.31
2022-10-19T10:21:00.661Z,101196.09
2022-10-19T10:23:31.992Z,101199.19
2022-10-19T10:25:59.588Z,101190.91
2022-10-19T10:28:28.347Z,101189.59
2022-10-19T10:31:04.889Z,101188.41
2022-10-19T10:33:44.343Z,101194.09
2022-10-19T10:36:12.569Z,101191.47
2022-10-19T10:38:43.520Z,101190.16
2022-10-19T10:41:14.098Z,101189.78
2022-10-19T10:46:32.715Z,101185.88
2022-10-19T10:49:05.324Z,101189.59
2022-10-19T10:51:45.119Z,101193.63
2022-10-19T10:54:26.717Z,101193.88
2022-10-19T10:57:13.106Z,101182.38
2022-10-19T10:59:47.288Z,101189.56
2022-10-19T11:02:32.865Z,101196.38
2022-10-19T11:05:25.221Z,101186.88
2022-10-19T11:08:03.119Z,101176.84
2022-10-19T11:10:43.289Z,101176.91
2022-10-19T11:13:27.798Z,101179.31
2022-10-19T11:16:13.609Z,101168.97
2022-10-19T11:18:43.296Z,101151.00
2022-10-19T11:21:13.370Z,101149.25
2022-10-19T11:24:06.911Z,101145.13
2022-10-19T11:26:52.662Z,101149.47
2022-10-19T11:29:18.963Z,101147.03
2022-10-19T11:31:50.413Z,101142.31
2022-10-19T11:34:47.537Z,101149.38
2022-10-19T11:37:29.719Z,101142.38
2022-10-19T11:40:05.142Z,101135.41
2022-10-19T11:42:58.924Z,101129.16
2022-10-19T11:45:35.281Z,101127.38
2022-10-19T11:48:25.063Z,101136.22
2022-10-19T11:50:58.857Z,101123.41
2022-10-19T11:54:14.622Z,101122.00
2022-10-19T11:57:06.372Z,101117.78
2022-10-19T11:59:45.570Z,101116.59
2022-10-19T12:02:37.828Z,101107.22
2022-10-19T12:05:17.888Z,101099.34
2022-10-19T12:08:07.489Z,101098.41
2022-10-19T12:10:40.067Z,101103.63
2022-10-19T12:13:13.388Z,101103.06
2022-10-19T12:15:41.275Z,101102.16
2022-10-19T12:18:19.063Z,101104.16
2022-10-19T12:20:51.320Z,101091.97
2022-10-19T12:23:34.180Z,101094.97
2022-10-19T12:26:05.665Z,101081.19
2022-10-19T12:28:35.317Z,101071.13
2022-10-19T12:31:02.914Z,101077.09
2022-10-19T12:33:50.960Z,101076.00
2022-10-19T12:36:28.853Z,101069.56
2022-10-19T12:39:14.155Z,101062.78
2022-10-19T12:41:52.428Z,101058.34
2022-10-19T12:44:55.023Z,101057.59
2022-10-19T12:47:25.452Z,101052.00
2022-10-19T12:49:55.535Z,101051.59
2022-10-19T12:52:52.793Z,101054.16
2022-10-19T12:55:25.591Z,101040.81
2022-10-19T12:58:03.092Z,101037.13
2022-10-19T13:00:36.227Z,101036.56
2022-10-19T13:03:15.574Z,101036.59
2022-10-19T13:05:42.370Z,101025.47
2022-10-19T13:08:12.097Z,101029.09
2022-10-19T13:10:40.932Z,101012.25
2022-10-19T13:13:47.217Z,101012.66
2022-10-19T13:16:28.613Z,101003.88
2022-10-19T13:19:18.317Z,101003.00
2022-10-19T13:21:50.924Z,100994.53
2022-10-19T13:24:23.381Z,100988.97
2022-10-19T13:27:02.003Z,100982.22
2022-10-19T13:29:38.325Z,100987.19
2022-10-19T13:32:48.331Z,100992.16
2022-10-19T13:35:29.226Z,100983.75
2022-10-19T13:38:17.265Z,100979.25
2022-10-19T13:40:49.797Z,100977.00
2022-10-19T13:43:41.297Z,100972.63
2022-10-19T13:46:09.339Z,100976.69
2022-10-19T13:48:48.698Z,100967.94
2022-10-19T13:51:31.231Z,100962.84
2022-10-19T13:54:20.367Z,100974.06
2022-10-19T13:57:09.856Z,100977.13
2022-10-19T13:59:45.765Z,100977.28
2022-10-19T14:02:48.044Z,100970.91
2022-10-19T14:05:52.347Z,100963.59
2022-10-19T14:08:43.652Z,100975.38
2022-10-19T14:11:25.430Z,100965.31
2022-10-19T14:14:10.528Z,100967.63
2022-10-19T14:17:01.205Z,100964.19
2022-10-19T14:19:42.605Z,100961.09
2022-10-19T14:22:38.687Z,100956.84
2022-10-19T14:25:10.901Z,100960.53
2022-10-19T14:27:38.432Z,100960.19
2022-10-19T14:30:05.949Z,100952.78
2022-10-19T14:32:34.330Z,100950.53
2022-10-19T14:35:16.133Z,100945.38
2022-10-19T14:37:43.661Z,100940.22
2022-10-19T14:40:31.088Z,100940.25
2022-10-19T14:42:59.457Z,100935.88
2022-10-19T14:45:32.530Z,100931.53
2022-10-19T14:48:05.124Z,100934.66
2022-10-19T14:50:45.145Z,100931.91
2022-10-19T14:53:33.495Z,100927.16
2022-10-19T14:56:09.913Z,100931.97
2022-10-19T14:58:42.118Z,100925.97
2022-10-19T15:01:10.720Z,100925.16
2022-10-19T15:03:43.644Z,100920.00
2022-10-19T15:06:18.105Z,100920.78
2022-10-19T15:08:51.788Z,100907.47
2022-10-19T15:11:39.686Z,100913.59
2022-10-19T15:14:12.760Z,100898.34
2022-10-19T15:16:39.037Z,100911.91
2022-10-19T15:19:14.358Z,100911.81
2022-10-19T15:21:40.695Z,100908.50
2022-10-19T15:24:21.323Z,100904.69
2022-10-19T15:27:01.796Z,100903.63
2022-10-19T15:29:34.942Z,100910.69
2022-10-19T15:32:39.554Z,100903.53
2022-10-19T15:35:21.274Z,100895.13
2022-10-19T15:37:49.973Z,100890.56
2022-10-19T15:40:31.702Z,100887.56
2022-10-19T15:42:58.061Z,100883.75
2022-10-19T15:45:42.350Z,100891.03
2022-10-19T15:48:25.811Z,100883.88
2022-10-19T15:50:52.562Z,100881.63
2022-10-19T15:53:20.712Z,100885.75
2022-10-19T15:55:47.411Z,100880.78
2022-10-19T15:58:14.566Z,100888.91
2022-10-19T16:00:41.872Z,100896.38
2022-10-19T16:03:09.059Z,100896.59
2022-10-19T16:05:36.511Z,100895.19
2022-10-19T16:08:02.942Z,100901.94
2022-10-19T16:10:29.332Z,100898.34
2022-10-19T16:12:55.729Z,100889.50
2022-10-19T16:15:24.129Z,100890.63
2022-10-19T16:17:52.080Z,100886.53
2022-10-19T16:20:19.156Z,100886.41
2022-10-19T16:22:46.742Z,100879.38
2022-10-19T16:25:14.054Z,100878.31
2022-10-19T16:27:40.517Z,100885.75
2022-10-19T16:30:07.929Z,100881.47
2022-10-19T16:32:34.652Z,100886.06
2022-10-19T16:35:02.018Z,100883.59
2022-10-19T16:37:28.379Z,100879.03
2022-10-19T16:39:54.701Z,100872.97
2022-10-19T16:42:21.483Z,100870.41
2022-10-19T16:44:48.206Z,100865.63
2022-10-19T16:47:16.925Z,100881.94
2022-10-19T16:49:43.447Z,100875.34
2022-10-19T16:52:13.947Z,100874.81
2022-10-19T16:54:40.597Z,100866.78
2022-10-19T16:57:09.750Z,100871.56
2022-10-19T16:59:36.619Z,100869.78
2022-10-19T17:02:02.961Z,100867.72
2022-10-19T17:04:29.357Z,100870.06
2022-10-19T17:06:56.993Z,100870.00
2022-10-19T17:12:11.838Z,100876.44
2022-10-19T17:14:40.000Z,100869.72
2022-10-19T17:17:07.197Z,100860.78
2022-10-19T17:19:33.829Z,100850.94
2022-10-19T17:22:01.800Z,100847.19
2022-10-19T17:24:28.948Z,100848.94
2022-10-19T17:26:55.459Z,100850.19
2022-10-19T17:29:22.976Z,100864.13
2022-10-19T17:31:50.340Z,100853.44
2022-10-19T17:34:17.216Z,100852.56
2022-10-19T17:36:45.550Z,100851.25
2022-10-19T17:39:24.393Z,100858.41
2022-10-19T17:41:53.896Z,100849.66
2022-10-19T17:44:21.375Z,100853.38
2022-10-19T17:46:47.792Z,100847.78
2022-10-19T17:49:14.397Z,100851.53
2022-10-19T17:51:41.187Z,100845.34
2022-10-19T17:54:12.449Z,100846.00
2022-10-19T17:56:39.420Z,100847.06
2022-10-19T17:59:07.880Z,100851.41
2022-10-19T18:01:34.915Z,100854.69
2022-10-19T18:04:01.299Z,100858.09
2022-10-19T18:06:31.536Z,100856.25
2022-10-19T18:08:59.502Z,100854.84
2022-10-19T18:11:27.028Z,100858.09
2022-10-19T18:13:56.207Z,100861.75
2022-10-19T18:16:34.684Z,100854.69
2022-10-19T18:19:02.317Z,100850.44
2022-10-19T18:21:38.431Z,100841.44
2022-10-19T18:24:07.398Z,100842.31
2022-10-19T18:26:35.547Z,100836.78
2022-10-19T18:29:10.029Z,100841.69
2022-10-19T18:31:37.938Z,100841.47
2022-10-19T18:34:06.341Z,100845.72
2022-10-19T18:36:33.566Z,100843.16
2022-10-19T18:39:02.861Z,100836.59
2022-10-19T18:41:29.783Z,100832.53
2022-10-19T18:44:03.088Z,100828.00
2022-10-19T18:46:29.673Z,100820.66
2022-10-19T18:48:56.086Z,100815.19
2022-10-19T18:51:23.827Z,100809.22
2022-10-19T18:53:50.333Z,100808.09
2022-10-19T18:56:19.597Z,100809.78
2022-10-19T18:58:46.819Z,100800.28
2022-10-19T19:01:14.166Z,100804.84
2022-10-19T19:03:43.001Z,100803.88
2022-10-19T19:06:15.069Z,100797.41
2022-10-19T19:08:41.709Z,100799.41
2022-10-19T19:11:26.108Z,100780.03
2022-10-19T19:13:57.933Z,100784.28
2022-10-19T19:16:24.734Z,100794.78
2022-10-19T19:18:51.401Z,100790.69
2022-10-19T19:21:20.386Z,100788.38
2022-10-19T19:23:47.515Z,100790.06
2022-10-19T19:26:15.314Z,100780.09
2022-10-19T19:28:43.484Z,100786.97
2022-10-19T19:31:15.207Z,100786.84
2022-10-19T19:33:43.353Z,100785.44
2022-10-19T19:36:11.477Z,100794.28
2022-10-19T19:38:37.924Z,100796.03
2022-10-19T19:41:06.528Z,100780.97
2022-10-19T19:43:34.777Z,100786.09
2022-10-19T19:46:06.415Z,100791.09
2022-10-19T19:48:36.397Z,100788.38
2022-10-19T19:51:02.793Z,100777.63
2022-10-19T19:53:29.376Z,100779.44
2022-10-19T19:55:55.771Z,100771.47
2022-10-19T19:58:22.137Z,100766.88
2022-10-19T20:00:48.518Z,100774.88
2022-10-19T20:03:15.746Z,100765.03
2022-10-19T20:05:42.647Z,100775.13
2022-10-19T20:08:09.656Z,100776.50
2022-10-19T20:10:41.751Z,100771.69
2022-10-19T20:13:08.137Z,100778.50
2022-10-19T20:15:38.396Z,100772.44
2022-10-19T20:18:05.360Z,100774.69
2022-10-19T20:20:31.805Z,100771.75
2022-10-19T20:22:58.169Z,100761.09
2022-10-19T20:25:24.582Z,100768.72
2022-10-19T20:27:50.966Z,100763.56
2022-10-19T20:30:17.437Z,100765.47
2022-10-19T20:32:43.782Z,100765.72
2022-10-19T20:35:10.119Z,100758.94
2022-10-19T20:37:36.504Z,100759.88
2022-10-19T20:40:08.565Z,100766.19
2022-10-19T20:42:35.677Z,100763.81
2022-10-19T20:45:02.398Z,100774.28
2022-10-19T20:47:29.403Z,100765.22
2022-10-19T20:49:55.795Z,100767.63
2022-10-19T20:52:22.164Z,100764.75
2022-10-19T20:54:49.234Z,100764.75
2022-10-19T20:57:15.646Z,100754.91
2022-10-19T20:59:43.727Z,100756.03
2022-10-19T21:02:11.130Z,100756.03
2022-10-19T21:04:37.662Z,100757.72
2022-10-19T21:07:04.885Z,100766.56
2022-10-19T21:09:31.819Z,100762.59
2022-10-19T21:11:58.243Z,100765.03
2022-10-19T21:14:28.804Z,100761.25
2022-10-19T21:16:59.501Z,100757.72
2022-10-19T21:19:27.746Z,100749.66
2022-10-19T21:21:56.941Z,100752.53
2022-10-19T21:24:28.677Z,100749.31
2022-10-19T21:26:55.109Z,100750.56
2022-10-19T21:29:21.575Z,100739.13
2022-10-19T21:31:51.910Z,100731.50
2022-10-19T21:34:21.722Z,100735.94
2022-10-19T21:36:48.822Z,100744.72
2022-10-19T21:39:15.419Z,100740.63
2022-10-19T21:41:41.765Z,100741.13
2022-10-19T21:44:08.560Z,100734.78
2022-10-19T21:46:34.992Z,100730.03
2022-10-19T21:49:01.374Z,100731.72
2022-10-19T21:51:36.152Z,100736.28
2022-10-19T21:54:04.390Z,100732.78
2022-10-19T21:56:31.703Z,100738.13
2022-10-19T21:58:58.128Z,100728.88
2022-10-19T22:01:27.493Z,100719.28
2022-10-19T22:03:58.383Z,100716.50
2022-10-19T22:06:26.145Z,100710.53
2022-10-19T22:08:52.798Z,100704.22
2022-10-19T22:11:20.102Z,100707.13
2022-10-19T22:13:46.664Z,100707.09
2022-10-19T22:16:18.989Z,100706.25
2022-10-19T22:18:46.787Z,100703.81
2022-10-19T22:21:20.410Z,100704.59
2022-10-19T22:23:54.545Z,100697.50
2022-10-19T22:26:33.617Z,100696.69
2022-10-19T22:29:01.686Z,100703.88
2022-10-19T22:31:30.146Z,100695.72
2022-10-19T22:33:57.120Z,100687.16
2022-10-19T22:36:23.460Z,100691.56
2022-10-19T22:38:49.927Z,100690.44
2022-10-19T22:41:16.272Z,100689.44
2022-10-19T22:43:42.609Z,100682.72
2022-10-19T22:46:08.982Z,100680.13
2022-10-19T22:48:35.342Z,100667.09
2022-10-19T22:51:01.692Z,100659.16
2022-10-19T22:53:28.087Z,100657.41
2022-10-19T22:55:54.429Z,100643.00
2022-10-19T22:58:20.803Z,100644.91
2022-10-19T23:01:01.458Z,100643.94
2022-10-19T23:03:27.809Z,100637.78
2022-10-19T23:05:54.177Z,100636.16
2022-10-19T23:08:20.520Z,100634.66
2022-10-19T23:10:46.899Z,100636.41
2022-10-19T23:13:13.230Z,100626.50
2022-10-19T23:15:43.157Z,100635.31
2022-10-19T23:18:10.562Z,100643.66
2022-10-19T23:20:36.912Z,100635.03
2022-10-19T23:23:03.444Z,100625.03
2022-10-19T23:25:29.800Z,100622.66
2022-10-19T23:27:56.121Z,100624.47
2022-10-19T23:30:22.676Z,100619.13
2022-10-19T23:32:49.053Z,100617.56
2022-10-19T23:35:15.490Z,100620.22
2022-10-19T23:37:41.932Z,100617.66
2022-10-19T23:40:08.762Z,100609.81
2022-10-19T23:42:35.135Z,100612.53
2022-10-19T23:45:01.470Z,100621.41
2022-10-19T23:47:28.046Z,100623.28
2022-10-19T23:49:54.510Z,100626.72
2022-10-19T23:52:20.849Z,100611.66
2022-10-19T23:54:47.256Z,100610.94
2022-10-19T23:57:13.581Z,100612.88
2022-10-19T23:59:39.918Z,100608.63
